Time;durP1;ratioP1;P1;durP2;ratioP2;P2;SDS_P1;SDS_P2;PMS_P1;PMS_P2;Temp;Humidity;BMP_temperature;BMP_pressure;BME280_temperature;BME280_humidity;BME280_pressure;Samples;Min_cycle;Max_cycle;Signal;HPM_P1;HPM_P2
2024/02/29 00:04:40;;;;;;;;;;;;;;;17.82;43.34;99839.19;10202713;28;1937;-72
2024/02/29 00:09:36;;;;;;;;;;;;;;;17.82;43.37;99830.41;10201663;28;783;-72
2024/02/29 00:14:32;;;;;;;;;;;;;;;17.82;43.39;99835.69;10202524;28;1032;-72
2024/02/29 00:19:28;;;;;;;;;;;;;;;17.80;43.17;99837.53;10202282;28;956;-72
2024/02/29 00:24:24;;;;;;;;;;;;;;;17.80;43.18;99834.88;10202178;28;1952;-72
2024/02/29 00:29:21;;;;;;;;;;;;;;;17.79;43.38;99834.03;10202639;28;1096;-72
2024/02/29 00:34:17;;;;;;;;;;;;;;;17.80;43.12;99842.81;10202707;28;876;-72
2024/02/29 00:39:13;;;;;;;;;;;;;;;17.77;43.26;99833.22;10201693;28;890;-72
2024/02/29 00:44:09;;;;;;;;;;;;;;;17.79;43.32;99826.13;10201573;28;1910;-72
2024/02/29 00:49:05;;;;;;;;;;;;;;;17.78;43.31;99815.59;10202026;28;751;-72
2024/02/29 00:54:01;;;;;;;;;;;;;;;17.78;43.09;99805.06;10201862;28;889;-72
2024/02/29 00:58:57;;;;;;;;;;;;;;;17.77;43.29;99809.47;10201868;28;917;-72
2024/02/29 01:03:52;;;;;;;;;;;;;;;17.75;43.33;99798.13;10200392;28;1894;-72
2024/02/29 01:08:49;;;;;;;;;;;;;;;17.75;43.10;99790.22;10200816;28;905;-72
2024/02/29 01:13:45;;;;;;;;;;;;;;;17.74;43.31;99794.66;10200717;28;815;-72
2024/02/29 01:18:41;;;;;;;;;;;;;;;17.73;43.35;99787.63;10199850;28;889;-72
2024/02/29 01:23:37;;;;;;;;;;;;;;;17.72;43.25;99774.53;10200304;28;1890;-72
2024/02/29 01:28:33;;;;;;;;;;;;;;;17.70;43.18;99764.03;10200349;28;1320;-72
2024/02/29 01:33:29;;;;;;;;;;;;;;;17.71;43.08;99763.16;10200166;28;735;-72
2024/02/29 01:38:24;;;;;;;;;;;;;;;17.70;43.25;99763.19;10200736;28;876;-72
2024/02/29 01:43:20;;;;;;;;;;;;;;;17.69;43.22;99751.81;10200417;28;881;-72
2024/02/29 01:48:16;;;;;;;;;;;;;;;17.67;43.19;99737.81;10199708;28;1919;-72
2024/02/29 01:53:12;;;;;;;;;;;;;;;17.68;43.07;99738.69;10200141;28;874;-72
2024/02/29 01:58:08;;;;;;;;;;;;;;;17.66;43.21;99736.13;10199829;28;915;-72
2024/02/29 02:03:04;;;;;;;;;;;;;;;17.65;43.16;99720.38;10199147;28;922;-72
2024/02/29 02:08:02;;;;;;;;;;;;;;;17.64;43.00;99719.50;10199279;28;1894;-72
2024/02/29 02:12:58;;;;;;;;;;;;;;;17.64;43.28;99711.59;10199505;28;884;-72
2024/02/29 02:17:54;;;;;;;;;;;;;;;17.63;43.21;99706.38;10198209;28;849;-72
2024/02/29 02:22:50;;;;;;;;;;;;;;;17.62;43.18;99704.69;10198516;28;1000;-72
2024/02/29 02:27:46;;;;;;;;;;;;;;;17.61;43.10;99695.94;10198414;28;1961;-72
2024/02/29 02:32:42;;;;;;;;;;;;;;;17.61;43.09;99690.66;10197785;28;1509;-72
2024/02/29 02:37:37;;;;;;;;;;;;;;;17.60;43.19;99690.72;10198014;28;865;-72
2024/02/29 02:42:33;;;;;;;;;;;;;;;17.58;43.09;99682.88;10198037;28;964;-72
2024/02/29 02:47:29;;;;;;;;;;;;;;;17.57;43.03;99683.78;10197275;28;1907;-72
2024/02/29 02:52:25;;;;;;;;;;;;;;;17.57;43.14;99675.88;10197838;28;774;-72
2024/02/29 02:57:21;;;;;;;;;;;;;;;17.56;42.89;99671.53;10197728;28;798;-72
2024/02/29 03:02:18;;;;;;;;;;;;;;;17.55;43.04;99653.16;10198493;28;785;-72
2024/02/29 03:07:14;;;;;;;;;;;;;;;17.55;42.84;99650.53;10197226;28;1898;-72
2024/02/29 03:12:10;;;;;;;;;;;;;;;17.53;42.93;99642.69;10196812;28;826;-72
2024/02/29 03:17:06;;;;;;;;;;;;;;;17.52;42.98;99640.97;10197774;28;900;-72
2024/02/29 03:22:01;;;;;;;;;;;;;;;17.51;42.94;99624.31;10196585;28;937;-72
2024/02/29 03:26:57;;;;;;;;;;;;;;;17.51;43.07;99624.31;10197361;28;1894;-72
2024/02/29 03:31:53;;;;;;;;;;;;;;;17.50;43.09;99612.06;10197837;28;1254;-72
2024/02/29 03:36:49;;;;;;;;;;;;;;;17.49;43.04;99606.84;10197363;28;882;-72
2024/02/29 03:41:45;;;;;;;;;;;;;;;17.48;43.02;99587.56;10197153;28;826;-72
2024/02/29 03:46:41;;;;;;;;;;;;;;;17.48;43.02;99584.91;10203310;28;1962;-72
2024/02/29 03:51:37;;;;;;;;;;;;;;;17.47;42.91;99582.34;10204225;28;873;-72
2024/02/29 03:56:33;;;;;;;;;;;;;;;17.46;42.81;99572.75;10203159;28;966;-71
2024/02/29 04:01:28;;;;;;;;;;;;;;;17.45;42.78;99571.88;10203013;28;828;-72
2024/02/29 04:06:24;;;;;;;;;;;;;;;17.46;42.94;99573.59;10202761;28;1961;-72
2024/02/29 04:11:20;;;;;;;;;;;;;;;17.44;42.73;99561.41;10202691;28;851;-72
2024/02/29 04:16:17;;;;;;;;;;;;;;;17.43;42.76;99562.34;10203458;28;936;-72
2024/02/29 04:21:12;;;;;;;;;;;;;;;17.42;43.01;99552.72;10202813;28;858;-72
2024/02/29 04:26:08;;;;;;;;;;;;;;;17.41;42.95;99549.22;10202158;28;1898;-71
2024/02/29 04:31:05;;;;;;;;;;;;;;;17.42;42.97;99553.59;10202214;28;1129;-72
2024/02/29 04:36:00;;;;;;;;;;;;;;;17.41;42.79;99540.47;10202469;28;824;-72
2024/02/29 04:40:56;;;;;;;;;;;;;;;17.43;42.85;99546.53;10202663;28;838;-72
2024/02/29 04:45:54;;;;;;;;;;;;;;;17.42;42.92;99532.50;10201559;28;1902;-72
2024/02/29 04:50:50;;;;;;;;;;;;;;;17.44;42.73;99532.41;10202025;28;1622;-72
2024/02/29 04:55:46;;;;;;;;;;;;;;;17.44;42.80;99530.63;10200970;28;954;-72
2024/02/29 05:00:42;;;;;;;;;;;;;;;17.46;42.90;99531.44;10201770;28;952;-72
2024/02/29 05:05:38;;;;;;;;;;;;;;;17.47;42.83;99532.28;10201927;28;1890;-72
2024/02/29 05:10:34;;;;;;;;;;;;;;;17.47;42.81;99519.09;10200779;28;821;-72
2024/02/29 05:15:31;;;;;;;;;;;;;;;17.48;42.79;99518.19;10200727;28;771;-72
2024/02/29 05:20:28;;;;;;;;;;;;;;;17.50;42.84;99516.31;10199956;28;1322;-72
2024/02/29 05:25:25;;;;;;;;;;;;;;;17.50;42.81;99498.75;10200322;28;1898;-72
2024/02/29 05:30:22;;;;;;;;;;;;;;;17.52;42.88;99496.88;10199810;28;1187;-72
2024/02/29 05:35:18;;;;;;;;;;;;;;;17.52;42.82;99488.97;10200197;28;909;-72
2024/02/29 05:40:14;;;;;;;;;;;;;;;17.54;42.73;99486.28;10200092;28;771;-73
2024/02/29 05:45:10;;;;;;;;;;;;;;;17.55;42.63;99471.31;10199773;28;1914;-72
2024/02/29 05:50:07;;;;;;;;;;;;;;;17.57;42.89;99467.69;10199632;28;843;-74
2024/02/29 05:55:03;;;;;;;;;;;;;;;17.58;42.81;99471.16;10199475;28;921;-72
2024/02/29 06:00:00;;;;;;;;;;;;;;;17.59;42.77;99457.94;10199890;28;881;-72
2024/02/29 06:04:58;;;;;;;;;;;;;;;17.60;42.84;99464.91;10198092;28;1894;-72
2024/02/29 06:09:54;;;;;;;;;;;;;;;17.61;42.68;99461.34;10199530;28;947;-73
2024/02/29 06:14:50;;;;;;;;;;;;;;;17.61;42.68;99456.09;10198915;28;780;-72
2024/02/29 06:19:46;;;;;;;;;;;;;;;17.62;42.74;99455.16;10198893;28;774;-72
2024/02/29 06:24:42;;;;;;;;;;;;;;;17.64;42.61;99450.66;10198543;28;1894;-72
2024/02/29 06:29:38;;;;;;;;;;;;;;;17.64;42.68;99452.44;10198414;28;1363;-72
2024/02/29 06:34:33;;;;;;;;;;;;;;;17.63;42.65;99453.34;10198921;28;873;-72
2024/02/29 06:39:29;;;;;;;;;;;;;;;17.65;42.68;99449.72;10198612;28;937;-73
2024/02/29 06:44:25;;;;;;;;;;;;;;;17.66;42.85;99453.25;10198026;28;1975;-72
2024/02/29 06:49:23;;;;;;;;;;;;;;;17.67;42.60;99444.41;10197977;28;850;-73
2024/02/29 06:54:19;;;;;;;;;;;;;;;17.66;42.72;99440.91;10199253;28;873;-71
2024/02/29 06:59:15;;;;;;;;;;;;;;;17.67;42.76;99428.59;10195011;28;1104;-71
2024/02/29 07:04:11;;;;;;;;;;;;;;;17.65;42.64;99436.53;10197014;28;1898;-71
2024/02/29 07:09:07;;;;;;;;;;;;;;;17.66;42.84;99424.25;10196761;28;845;-71
2024/02/29 07:14:03;;;;;;;;;;;;;;;17.64;42.80;99426.94;10197058;28;794;-71
2024/02/29 07:18:59;;;;;;;;;;;;;;;17.61;42.76;99421.81;10201803;28;830;-71
2024/02/29 07:23:55;;;;;;;;;;;;;;;17.58;42.61;99427.25;10204006;28;1906;-74
2024/02/29 07:28:51;;;;;;;;;;;;;;;17.58;42.35;99424.63;10203028;28;1258;-71
2024/02/29 07:33:47;;;;;;;;;;;;;;;17.55;42.21;99429.16;10203894;28;794;-70
2024/02/29 07:38:42;;;;;;;;;;;;;;;17.52;42.29;99419.63;10203223;28;773;-75
2024/02/29 07:43:38;;;;;;;;;;;;;;;17.51;42.04;99418.75;10204422;28;1910;-71
2024/02/29 07:48:34;;;;;;;;;;;;;;;17.50;41.85;99421.47;10203412;28;722;-71
2024/02/29 07:53:30;;;;;;;;;;;;;;;17.49;41.62;99419.75;10202720;28;843;-72
2024/02/29 07:58:26;;;;;;;;;;;;;;;17.49;41.49;99422.41;10204009;28;821;-71
2024/02/29 08:03:22;;;;;;;;;;;;;;;17.49;41.48;99410.06;10202930;28;878;-71
2024/02/29 08:08:18;;;;;;;;;;;;;;;17.50;41.58;99410.91;10202718;28;1894;-71
2024/02/29 08:13:14;;;;;;;;;;;;;;;17.52;41.58;99409.06;10202752;28;860;-71
2024/02/29 08:18:10;;;;;;;;;;;;;;;17.52;41.71;99404.66;10203078;28;881;-71
2024/02/29 08:23:06;;;;;;;;;;;;;;;17.55;41.62;99408.06;10202941;28;849;-71
2024/02/29 08:28:02;;;;;;;;;;;;;;;17.54;41.64;99394.03;10201278;28;1962;-71
2024/02/29 08:32:58;;;;;;;;;;;;;;;17.57;41.60;99395.69;10202767;28;1152;-70
2024/02/29 08:37:54;;;;;;;;;;;;;;;17.58;41.38;99393.00;10201360;28;948;-70
2024/02/29 08:42:51;;;;;;;;;;;;;;;17.59;41.62;99370.13;10201826;28;933;-70
2024/02/29 08:47:47;;;;;;;;;;;;;;;17.60;41.53;99371.81;10201514;28;1965;-71
2024/02/29 08:52:43;;;;;;;;;;;;;;;17.60;41.45;99362.13;10202299;28;876;-71
2024/02/29 08:57:39;;;;;;;;;;;;;;;17.62;41.51;99362.91;10201926;28;838;-70
2024/02/29 09:02:35;;;;;;;;;;;;;;;17.62;41.43;99355.00;10201129;28;867;-70
2024/02/29 09:07:31;;;;;;;;;;;;;;;17.63;41.30;99354.09;10201029;28;1894;-71
2024/02/29 09:12:27;;;;;;;;;;;;;;;17.64;41.40;99353.16;10201558;28;866;-71
2024/02/29 09:17:23;;;;;;;;;;;;;;;17.66;41.55;99347.81;10201137;28;976;-71
2024/02/29 09:22:18;;;;;;;;;;;;;;;17.65;41.51;99338.19;10200584;28;844;-71
2024/02/29 09:27:14;;;;;;;;;;;;;;;17.66;41.46;99339.91;10200240;28;1959;-71
2024/02/29 09:32:10;;;;;;;;;;;;;;;17.67;41.52;99334.53;10199473;28;1282;-71
2024/02/29 09:37:06;;;;;;;;;;;;;;;17.67;41.22;99328.44;10199543;28;869;-71
2024/02/29 09:42:03;;;;;;;;;;;;;;;17.69;41.25;99322.16;10199347;28;861;-71
2024/02/29 09:46:59;;;;;;;;;;;;;;;17.70;41.25;99315.09;10199649;28;1959;-71
2024/02/29 09:51:55;;;;;;;;;;;;;;;17.70;41.03;99318.56;10200263;28;956;-71
2024/02/29 09:56:50;;;;;;;;;;;;;;;17.71;41.06;99322.06;10197136;28;1182;-70
2024/02/29 10:01:46;;;;;;;;;;;;;;;17.72;41.13;99318.50;10198975;28;766;-71
2024/02/29 10:06:43;;;;;;;;;;;;;;;17.72;41.08;99307.97;10199031;28;2008;-70
2024/02/29 10:11:39;;;;;;;;;;;;;;;17.73;40.91;99307.88;10199087;28;834;-70
2024/02/29 10:16:34;;;;;;;;;;;;;;;17.75;41.14;99303.38;10198259;28;904;-70
2024/02/29 10:21:30;;;;;;;;;;;;;;;17.77;41.09;99294.56;10198564;28;931;-71
2024/02/29 10:26:26;;;;;;;;;;;;;;;17.78;40.92;99288.34;10198505;28;1894;-70
2024/02/29 10:31:22;;;;;;;;;;;;;;;17.81;40.97;99282.94;10198936;28;1108;-70
2024/02/29 10:36:18;;;;;;;;;;;;;;;17.81;41.21;99275.88;10197212;28;937;-73
2024/02/29 10:41:14;;;;;;;;;;;;;;;17.84;41.28;99272.25;10198641;28;869;-73
2024/02/29 10:46:10;;;;;;;;;;;;;;;17.83;41.05;99266.13;10197663;28;1960;-70
2024/02/29 10:51:06;;;;;;;;;;;;;;;17.84;41.21;99262.56;10199403;28;793;-70
2024/02/29 10:56:02;;;;;;;;;;;;;;;17.83;40.83;99257.38;10211118;28;830;-71
2024/02/29 11:00:58;;;;;;;;;;;;;;;17.85;40.90;99255.50;10210793;28;756;-70
2024/02/29 11:05:54;;;;;;;;;;;;;;;17.85;41.17;99242.31;10210535;28;1902;-71
2024/02/29 11:10:50;;;;;;;;;;;;;;;17.85;41.20;99242.31;10210398;28;842;-71
2024/02/29 11:15:45;;;;;;;;;;;;;;;17.86;40.96;99239.59;10210912;28;775;-72
2024/02/29 11:20:42;;;;;;;;;;;;;;;17.88;41.22;99235.09;10210100;28;892;-70
2024/02/29 11:25:38;;;;;;;;;;;;;;;17.87;41.11;99229.94;10209981;28;1949;-74
2024/02/29 11:30:34;;;;;;;;;;;;;;;17.87;41.28;99216.75;10210312;28;1333;-71
2024/02/29 11:35:30;;;;;;;;;;;;;;;17.90;41.29;99216.56;10209828;28;795;-71
2024/02/29 11:40:26;;;;;;;;;;;;;;;17.91;41.26;99213.00;10210251;28;845;-70
2024/02/29 11:45:23;;;;;;;;;;;;;;;17.90;41.16;99204.25;10208855;28;1903;-70
2024/02/29 11:50:19;;;;;;;;;;;;;;;17.91;41.14;99184.00;10209381;28;887;-70
2024/02/29 11:55:15;;;;;;;;;;;;;;;17.92;41.29;99183.06;10209252;28;1218;-70
2024/02/29 12:00:11;;;;;;;;;;;;;;;17.94;41.17;99175.91;10209142;28;810;-74
2024/02/29 12:05:06;;;;;;;;;;;;;;;17.93;41.38;99167.16;10203745;28;1898;-70
2024/02/29 12:10:02;;;;;;;;;;;;;;;17.95;41.39;99169.72;10202308;28;765;-70
2024/02/29 12:14:58;;;;;;;;;;;;;;;17.96;41.12;99168.78;10202150;28;926;-71
2024/02/29 12:19:55;;;;;;;;;;;;;;;17.98;41.22;99156.38;10202480;28;904;-71
2024/02/29 12:24:50;;;;;;;;;;;;;;;17.98;41.16;99143.19;10202925;28;1964;-76
2024/02/29 12:29:47;;;;;;;;;;;;;;;17.98;41.10;99137.06;10202440;28;1499;-70
2024/02/29 12:34:44;;;;;;;;;;;;;;;17.97;41.23;99128.28;10202009;28;965;-70
2024/02/29 12:39:40;;;;;;;;;;;;;;;17.98;41.05;99130.00;10202256;28;929;-70
2024/02/29 12:44:36;;;;;;;;;;;;;;;17.98;41.23;99114.19;10201673;28;2036;-71
2024/02/29 12:49:32;;;;;;;;;;;;;;;17.99;41.37;99115.03;10201513;28;861;-73
2024/02/29 12:54:28;;;;;;;;;;;;;;;17.99;41.30;99105.34;10202684;28;782;-73
2024/02/29 12:59:24;;;;;;;;;;;;;;;18.00;41.16;99093.88;10201863;28;774;-72
2024/02/29 13:04:20;;;;;;;;;;;;;;;18.01;41.22;99079.72;10201109;28;1894;-71
2024/02/29 13:09:19;;;;;;;;;;;;;;;18.05;41.34;99078.66;10201603;28;888;-71
2024/02/29 13:14:15;;;;;;;;;;;;;;;18.08;41.17;99065.28;10199146;28;1021;-70
2024/02/29 13:19:14;;;;;;;;;;;;;;;18.08;41.19;99064.44;10199819;28;913;-70
2024/02/29 13:24:10;;;;;;;;;;;;;;;18.07;41.10;99053.00;10199956;28;1966;-70
2024/02/29 13:29:06;;;;;;;;;;;;;;;18.09;41.06;99045.88;10200208;28;1257;-70
2024/02/29 13:34:03;;;;;;;;;;;;;;;18.08;41.31;99041.56;10200665;28;861;-73
2024/02/29 13:38:58;;;;;;;;;;;;;;;18.06;41.27;99032.88;10199481;28;1211;-74
2024/02/29 13:43:54;;;;;;;;;;;;;;;18.07;41.27;99020.53;10199864;28;1961;-72
2024/02/29 13:48:50;;;;;;;;;;;;;;;18.07;41.29;99008.19;10199755;28;854;-71
2024/02/29 13:53:46;;;;;;;;;;;;;;;18.10;41.15;99008.03;10200028;28;798;-81
2024/02/29 13:58:42;;;;;;;;;;;;;;;18.13;41.07;98993.78;10199876;28;861;-71
2024/02/29 14:03:38;;;;;;;;;;;;;;;18.12;41.30;98984.19;10199098;28;773;-70
2024/02/29 14:08:34;;;;;;;;;;;;;;;18.13;41.49;98972.69;10198837;28;1890;-70
2024/02/29 14:13:30;;;;;;;;;;;;;;;18.14;41.36;98964.72;10198843;28;1020;-70
2024/02/29 14:18:25;;;;;;;;;;;;;;;18.13;41.31;98956.88;10198678;28;858;-70
2024/02/29 14:23:23;;;;;;;;;;;;;;;18.12;41.31;98944.63;10198474;28;810;-70
2024/02/29 14:28:18;;;;;;;;;;;;;;;18.11;41.30;98938.53;10197928;28;1947;-70
2024/02/29 14:33:15;;;;;;;;;;;;;;;18.12;41.33;98940.19;10199105;28;1704;-70
2024/02/29 14:38:10;;;;;;;;;;;;;;;18.12;41.39;98923.53;10198629;28;950;-70
2024/02/29 14:43:06;;;;;;;;;;;;;;;18.11;41.33;98919.22;10197422;28;948;-70
2024/02/29 14:48:03;;;;;;;;;;;;;;;18.10;41.42;98912.22;10197774;28;1960;-70
2024/02/29 14:52:58;;;;;;;;;;;;;;;18.08;41.53;98906.22;10197647;28;881;-70
2024/02/29 14:57:54;;;;;;;;;;;;;;;18.06;41.40;98895.72;10197679;28;843;-70
2024/02/29 15:02:50;;;;;;;;;;;;;;;18.06;41.41;98893.09;10197450;28;873;-71
2024/02/29 15:07:46;;;;;;;;;;;;;;;18.06;41.48;98893.09;10197203;28;1890;-72
2024/02/29 15:12:42;;;;;;;;;;;;;;;18.06;41.45;98881.72;10197180;28;881;-71
2024/02/29 15:17:38;;;;;;;;;;;;;;;18.04;41.50;98875.66;10197089;28;858;-70
2024/02/29 15:22:34;;;;;;;;;;;;;;;18.05;41.47;98874.72;10197627;28;769;-71
2024/02/29 15:27:37;;;;;;;;;;;;;;;18.04;41.56;98871.22;10196575;28;1890;-71
2024/02/29 15:32:33;;;;;;;;;;;;;;;18.03;41.70;98859.00;10197423;28;1120;-71
2024/02/29 15:37:30;;;;;;;;;;;;;;;18.04;41.80;98858.06;10198246;28;869;-71
2024/02/29 15:42:26;;;;;;;;;;;;;;;18.03;41.58;98861.63;10203474;28;972;-71
2024/02/29 15:47:22;;;;;;;;;;;;;;;18.04;41.46;98847.50;10203910;28;1914;-71
2024/02/29 15:52:18;;;;;;;;;;;;;;;18.04;41.61;98842.22;10203191;28;822;-71
2024/02/29 15:57:14;;;;;;;;;;;;;;;18.05;41.72;98838.66;10202980;28;861;-71
2024/02/29 16:02:10;;;;;;;;;;;;;;;18.05;41.72;98836.03;10203647;28;806;-71
2024/02/29 16:07:06;;;;;;;;;;;;;;;18.05;41.65;98833.41;10202902;28;1894;-71
2024/02/29 16:12:03;;;;;;;;;;;;;;;18.07;41.60;98825.38;10202572;28;870;-71
2024/02/29 16:17:01;;;;;;;;;;;;;;;18.07;41.81;98822.75;10202973;28;845;-71
2024/02/29 16:21:57;;;;;;;;;;;;;;;18.08;41.65;98813.91;10202875;28;921;-71
2024/02/29 16:26:53;;;;;;;;;;;;;;;18.07;41.56;98815.66;10201937;28;1949;-71
2024/02/29 16:31:49;;;;;;;;;;;;;;;18.08;41.80;98808.63;10202614;28;1160;-71
2024/02/29 16:36:45;;;;;;;;;;;;;;;18.09;41.74;98811.16;10201727;28;1011;-73
2024/02/29 16:41:42;;;;;;;;;;;;;;;18.08;41.73;98801.56;10202244;28;877;-71
2024/02/29 16:46:38;;;;;;;;;;;;;;;18.08;41.86;98793.66;10202093;28;1910;-71
2024/02/29 16:51:34;;;;;;;;;;;;;;;18.09;41.73;98786.59;10200467;28;854;-71
2024/02/29 16:56:30;;;;;;;;;;;;;;;18.08;41.80;98798.94;10201871;28;806;-71
2024/02/29 17:01:26;;;;;;;;;;;;;;;18.10;41.79;98783.00;10201071;28;789;-71
2024/02/29 17:06:22;;;;;;;;;;;;;;;18.11;41.70;98780.28;10201488;28;1894;-71
2024/02/29 17:11:18;;;;;;;;;;;;;;;18.09;41.82;98774.25;10200758;28;828;-71
2024/02/29 17:16:14;;;;;;;;;;;;;;;18.11;41.92;98782.91;10201185;28;790;-70
2024/02/29 17:21:10;;;;;;;;;;;;;;;18.12;41.78;98774.06;10200382;28;913;-71
2024/02/29 17:26:06;;;;;;;;;;;;;;;18.12;41.92;98775.84;10200261;28;1961;-71
2024/02/29 17:31:02;;;;;;;;;;;;;;;18.12;41.93;98768.78;10200829;28;1131;-71
2024/02/29 17:35:58;;;;;;;;;;;;;;;18.13;41.79;98767.00;10199950;28;1594;-71
2024/02/29 17:40:54;;;;;;;;;;;;;;;18.15;41.83;98773.03;10199212;28;1039;-71
2024/02/29 17:45:51;;;;;;;;;;;;;;;18.14;41.81;98769.53;10200231;28;1914;-71
2024/02/29 17:50:47;;;;;;;;;;;;;;;18.15;41.77;98760.69;10200150;28;830;-70
2024/02/29 17:55:43;;;;;;;;;;;;;;;18.17;41.90;98756.16;10199975;28;874;-70
2024/02/29 18:00:41;;;;;;;;;;;;;;;18.16;41.82;98749.22;10198679;28;940;-71
2024/02/29 18:05:37;;;;;;;;;;;;;;;18.17;42.00;98747.41;10198920;28;1954;-71
2024/02/29 18:10:33;;;;;;;;;;;;;;;18.18;41.77;98749.97;10198938;28;823;-71
2024/02/29 18:15:29;;;;;;;;;;;;;;;18.17;41.89;98745.63;10198784;28;805;-71
2024/02/29 18:20:25;;;;;;;;;;;;;;;18.20;41.88;98741.09;10199361;28;792;-71
2024/02/29 18:25:21;;;;;;;;;;;;;;;18.20;41.89;98739.31;10198947;28;2318;-71
2024/02/29 18:30:17;;;;;;;;;;;;;;;18.20;41.83;98736.66;10198573;28;1111;-71
2024/02/29 18:35:13;;;;;;;;;;;;;;;18.20;41.80;98730.56;10198158;28;784;-71
2024/02/29 18:40:12;;;;;;;;;;;;;;;18.22;41.63;98731.31;10198772;28;806;-71
2024/02/29 18:45:08;;;;;;;;;;;;;;;18.23;41.74;98730.34;10197841;28;1910;-71
2024/02/29 18:50:04;;;;;;;;;;;;;;;18.23;41.81;98725.09;10198415;28;861;-71
2024/02/29 18:55:00;;;;;;;;;;;;;;;18.23;41.77;98715.38;10197670;28;826;-71
2024/02/29 18:59:56;;;;;;;;;;;;;;;18.24;41.63;98717.09;10197608;28;788;-71
2024/02/29 19:04:52;;;;;;;;;;;;;;;18.24;41.76;98724.16;10198063;28;1914;-71
2024/02/29 19:09:48;;;;;;;;;;;;;;;18.25;41.78;98716.13;10197271;28;956;-71
2024/02/29 19:14:44;;;;;;;;;;;;;;;18.25;41.83;98716.13;10201390;28;946;-71
2024/02/29 19:19:39;;;;;;;;;;;;;;;18.26;41.78;98716.97;10204315;28;837;-71
2024/02/29 19:24:35;;;;;;;;;;;;;;;18.26;41.73;98714.34;10203982;28;1890;-71
2024/02/29 19:29:33;;;;;;;;;;;;;;;18.27;41.65;98697.59;10203819;28;1183;-71
2024/02/29 19:34:29;;;;;;;;;;;;;;;18.27;41.75;98695.78;10204273;28;845;-71
2024/02/29 19:39:24;;;;;;;;;;;;;;;18.27;41.57;98687.88;10203673;28;889;-71
2024/02/29 19:44:20;;;;;;;;;;;;;;;18.28;41.90;98691.38;10203440;28;1959;-71
2024/02/29 19:49:17;;;;;;;;;;;;;;;18.29;41.55;98678.09;10203334;28;953;-71
2024/02/29 19:54:13;;;;;;;;;;;;;;;18.29;41.74;98678.09;10203136;28;940;-71
2024/02/29 19:59:09;;;;;;;;;;;;;;;18.30;41.48;98676.28;10202905;28;937;-71
2024/02/29 20:04:05;;;;;;;;;;;;;;;18.30;41.40;98679.78;10203226;28;1898;-71
2024/02/29 20:09:01;;;;;;;;;;;;;;;18.31;41.75;98677.97;10202782;28;943;-71
2024/02/29 20:13:57;;;;;;;;;;;;;;;18.32;41.42;98675.25;10202570;28;846;-71
2024/02/29 20:18:52;;;;;;;;;;;;;;;18.33;41.52;98676.09;10202468;28;859;-71
2024/02/29 20:23:48;;;;;;;;;;;;;;;18.33;41.64;98670.81;10201744;28;953;-71
2024/02/29 20:28:44;;;;;;;;;;;;;;;18.33;41.64;98655.00;10202400;28;1949;-71
2024/02/29 20:33:40;;;;;;;;;;;;;;;18.33;41.48;98647.91;10202003;28;735;-71
2024/02/29 20:38:36;;;;;;;;;;;;;;;18.34;41.68;98644.34;10202426;28;786;-71
2024/02/29 20:43:32;;;;;;;;;;;;;;;18.33;41.46;98639.16;10201690;28;781;-71
2024/02/29 20:48:28;;;;;;;;;;;;;;;18.33;41.57;98640.00;10202129;28;1914;-71
2024/02/29 20:53:24;;;;;;;;;;;;;;;18.32;41.45;98630.41;10202073;28;835;-71
2024/02/29 20:58:20;;;;;;;;;;;;;;;18.32;41.60;98621.66;10200713;28;960;-71
2024/02/29 21:03:16;;;;;;;;;;;;;;;18.29;41.22;98614.78;10201151;28;783;-71
2024/02/29 21:08:12;;;;;;;;;;;;;;;18.31;41.63;98614.66;10200283;28;1903;-71
2024/02/29 21:13:12;;;;;;;;;;;;;;;18.30;41.55;98605.06;10201331;28;853;-71
2024/02/29 21:18:08;;;;;;;;;;;;;;;18.30;41.59;98610.34;10200599;28;1305;-71
2024/02/29 21:23:04;;;;;;;;;;;;;;;18.29;41.54;98603.38;10200467;28;866;-71
2024/02/29 21:28:00;;;;;;;;;;;;;;;18.29;41.47;98600.75;10200925;28;1957;-71
2024/02/29 21:32:55;;;;;;;;;;;;;;;18.28;41.57;98599.03;10200555;28;1180;-71
2024/02/29 21:37:52;;;;;;;;;;;;;;;18.27;41.52;98600.00;10200301;28;954;-71
2024/02/29 21:42:50;;;;;;;;;;;;;;;18.25;41.45;98586.06;10199838;28;838;-71
2024/02/29 21:47:46;;;;;;;;;;;;;;;18.26;41.54;98585.09;10199578;28;1918;-71
2024/02/29 21:52:42;;;;;;;;;;;;;;;18.26;41.54;98582.47;10200129;28;884;-71
2024/02/29 21:57:38;;;;;;;;;;;;;;;18.24;41.46;98573.81;10199414;28;830;-71
2024/02/29 22:02:34;;;;;;;;;;;;;;;18.23;41.57;98556.28;10199713;28;866;-71
2024/02/29 22:07:30;;;;;;;;;;;;;;;18.22;41.47;98559.88;10199118;28;1949;-71
2024/02/29 22:12:26;;;;;;;;;;;;;;;18.20;41.71;98557.31;10199653;28;787;-71
2024/02/29 22:17:22;;;;;;;;;;;;;;;18.18;41.48;98544.25;10199620;28;791;-71
2024/02/29 22:22:18;;;;;;;;;;;;;;;18.17;41.50;98545.19;10199293;28;869;-71
2024/02/29 22:27:14;;;;;;;;;;;;;;;18.15;41.62;98541.78;10198719;28;1957;-71
2024/02/29 22:32:10;;;;;;;;;;;;;;;18.13;41.58;98535.78;10197869;28;1203;-71
2024/02/29 22:37:06;;;;;;;;;;;;;;;18.12;41.60;98534.06;10198438;28;774;-71
2024/02/29 22:42:02;;;;;;;;;;;;;;;18.11;41.47;98529.75;10198403;28;907;-71
2024/02/29 22:46:58;;;;;;;;;;;;;;;18.10;41.71;98536.00;10197356;28;1910;-71
2024/02/29 22:51:54;;;;;;;;;;;;;;;18.09;41.47;98529.00;10199242;28;917;-71
2024/02/29 22:56:50;;;;;;;;;;;;;;;18.09;41.52;98536.06;10198590;28;814;-71
2024/02/29 23:01:46;;;;;;;;;;;;;;;18.07;41.60;98530.88;10197944;28;840;-71
2024/02/29 23:06:43;;;;;;;;;;;;;;;18.06;41.69;98520.44;10197663;28;1957;-71
2024/02/29 23:11:38;;;;;;;;;;;;;;;18.04;41.62;98517.91;10198366;28;860;-71
2024/02/29 23:16:34;;;;;;;;;;;;;;;18.03;41.53;98508.31;10197475;28;857;-71
2024/02/29 23:21:30;;;;;;;;;;;;;;;18.02;41.59;98513.66;10197937;28;811;-71
2024/02/29 23:26:26;;;;;;;;;;;;;;;18.01;41.51;98509.34;10198103;28;1949;-71
2024/02/29 23:31:22;;;;;;;;;;;;;;;18.01;41.64;98509.34;10196337;28;1096;-71
2024/02/29 23:36:18;;;;;;;;;;;;;;;17.99;41.50;98505.97;10196915;28;868;-71
2024/02/29 23:41:14;;;;;;;;;;;;;;;17.98;41.52;98494.56;10197490;28;799;-71
2024/02/29 23:46:10;;;;;;;;;;;;;;;17.96;41.61;98497.28;10196664;28;1914;-71
2024/02/29 23:51:05;;;;;;;;;;;;;;;17.95;41.60;98492.97;10196558;28;965;-71
2024/02/29 23:56:01;;;;;;;;;;;;;;;17.95;41.51;98490.34;10197138;28;938;-71
